Reklama

Seznam meteostanic a jejich METAR

Vyhledat místa podle abecedy:
A B C D E F G H I J K L M N O P Q R S T U V W X Y Z

Filtrovat:

ID stanice:
a/nebo
Název místa (fulltext):
 
Místo (ID)Naposledy načteno 
Odense (EKOD) 18.11.2018 13:50 UTC Zobrazit METAR
EKOD 181350Z 05010KT 9999 FEW017 BKN025 BKN200 07/06 Q1034
Odesa (UKOO) 01.02.2018 08:00 UTC Zobrazit METAR
UKOO 010800Z CAVOK 07/04 Q1018 R16/190056 NOSIG
Osijek (LDOS) 19.11.2018 01:00 UTC Zobrazit METAR
LDOS 190100Z 07004KT 5000 -SN BKN015 OVC023 01/00 Q1015 R99/1///94
Oslo (ENGM) 19.11.2018 00:50 UTC Zobrazit METAR
ENGM 190050Z 06005KT 9999 BKN010 00/M01 Q1040
Ostend (EBOS) 19.11.2018 00:50 UTC Zobrazit METAR
EBOS 190050Z 06014KT CAVOK 03/M01 Q1024 NOSIG
Ostrava (LKMT) 19.11.2018 01:00 UTC Zobrazit METAR
LKMT 190100Z 02008KT 5000 BR SCT008 M01/M03 Q1019 NOSIG
Ottawa (CYOW) 19.11.2018 01:00 UTC Zobrazit METAR
CYOW 190100Z 14007KT 15SM OVC056 M03/M07 A3018 RMK SC8 SLP229
Ouagadougou (DFFD) 19.11.2018 01:00 UTC Zobrazit METAR
DFFD 190100Z 14002KT CAVOK 28/21 Q1011 NOSIG
Oulu (EFOU) 19.11.2018 00:50 UTC Zobrazit METAR
EFOU 190050Z AUTO VRB01KT CAVOK M06/M07 Q1041
Reklama

Počasí na Váš email

Emaily jsou bez reklamy a bez spamu



Odhlásit newsletter

Reklama


Lunární kalendář

  • 23.11.
  • 30.11.
  • 07.12.
  • 15.12.



Reklama


Reklama
Povinné ručení
Reklama



Reklama